Time;durP1;ratioP1;P1;durP2;ratioP2;P2;SDS_P1;SDS_P2;PMS_P1;PMS_P2;Temp;Humidity;BMP_temperature;BMP_pressure;BME280_temperature;BME280_humidity;BME280_pressure;Samples;Min_cycle;Max_cycle;Signal;HPM_P1;HPM_P2
2021/09/13 00:01:51;;;;;;;5.82;2.28;;;;;;;18.44;55.78;100071.47;6220530;23;20022;-82
2021/09/13 00:04:18;;;;;;;5.05;2.05;;;;;;;18.40;55.77;100076.25;6220340;23;20024;-82
2021/09/13 00:06:46;;;;;;;5.35;2.13;;;;;;;18.38;56.26;100074.69;6220060;23;20035;-82
2021/09/13 00:09:12;;;;;;;5.38;2.35;;;;;;;18.36;55.87;100072.97;6220190;23;20022;-82
2021/09/13 00:11:39;;;;;;;3.67;2.28;;;;;;;18.34;55.94;100069.59;6220629;23;20439;-82
2021/09/13 00:14:08;;;;;;;5.30;2.47;;;;;;;18.33;56.06;100075.06;6220805;23;20490;-82
2021/09/13 00:16:35;;;;;;;5.30;2.08;;;;;;;18.32;55.91;100078.72;6219951;23;20021;-82
2021/09/13 00:19:04;;;;;;;3.30;1.77;;;;;;;18.29;56.53;100074.50;6220117;23;20103;-82
2021/09/13 00:21:31;;;;;;;5.57;2.33;;;;;;;18.29;56.12;100068.31;6220367;23;20431;-82
2021/09/13 00:23:57;;;;;;;3.03;1.95;;;;;;;18.28;56.03;100070.13;6220221;23;20039;-82
2021/09/13 00:26:24;;;;;;;5.25;2.13;;;;;;;18.27;56.52;100071.09;6220239;23;20028;-82
2021/09/13 00:28:51;;;;;;;3.13;1.98;;;;;;;18.26;56.13;100074.75;6246407;23;20027;-82
2021/09/13 00:31:17;;;;;;;3.88;1.92;;;;;;;18.24;56.32;100074.00;6246742;23;20054;-82
2021/09/13 00:33:44;;;;;;;6.55;2.60;;;;;;;18.22;56.30;100075.97;6219537;23;20022;-82
2021/09/13 00:36:11;;;;;;;5.72;2.35;;;;;;;18.20;56.24;100072.56;6219912;23;20026;-82
2021/09/13 00:38:37;;;;;;;4.20;2.38;;;;;;;18.17;56.60;100073.69;6220030;23;20031;-83
2021/09/13 00:41:04;;;;;;;3.15;1.77;;;;;;;18.16;56.69;100073.84;6220275;23;20020;-82
2021/09/13 00:43:31;;;;;;;5.43;2.25;;;;;;;18.13;56.90;100072.25;6219641;23;20020;-82
2021/09/13 00:46:01;;;;;;;5.43;1.98;;;;;;;18.12;57.50;100069.75;6219656;23;20028;-82
2021/09/13 00:48:28;;;;;;;6.25;2.45;;;;;;;18.12;56.95;100075.06;6220336;23;20016;-82
2021/09/13 00:50:57;;;;;;;6.20;2.30;;;;;;;18.07;57.27;100073.59;6219965;23;20020;-82
2021/09/13 00:53:23;;;;;;;6.25;2.22;;;;;;;18.07;56.81;100070.09;6219814;23;20026;-82
2021/09/13 00:55:55;;;;;;;4.53;1.95;;;;;;;18.03;57.51;100058.00;6220184;23;20028;-82
2021/09/13 00:58:27;;;;;;;6.88;2.25;;;;;;;18.02;57.67;100066.97;6219509;23;20332;-82
2021/09/13 01:00:55;;;;;;;5.63;2.10;;;;;;;18.02;56.94;100069.63;6219996;23;20026;-82
2021/09/13 01:03:22;;;;;;;4.60;2.20;;;;;;;17.99;57.21;100060.09;6219683;23;20020;-82
2021/09/13 01:05:49;;;;;;;5.28;2.40;;;;;;;17.99;57.03;100065.41;6219586;23;20099;-82
2021/09/13 01:08:16;;;;;;;3.45;2.10;;;;;;;17.96;57.04;100060.31;6219903;23;20027;-82
2021/09/13 01:10:51;;;;;;;3.92;1.90;;;;;;;17.92;57.96;100058.88;6220197;23;20028;-82
2021/09/13 01:13:18;;;;;;;5.75;2.17;;;;;;;17.93;57.42;100056.09;6219433;23;20016;-82
2021/09/13 01:15:45;;;;;;;2.72;1.90;;;;;;;17.91;57.34;100049.22;6219777;23;20325;-82
2021/09/13 01:18:25;;;;;;;5.80;2.08;;;;;;;17.85;58.34;100053.22;6219795;23;20024;-82
2021/09/13 01:20:55;;;;;;;3.35;2.08;;;;;;;17.88;57.44;100057.47;6220696;23;20035;-82
2021/09/13 01:23:36;;;;;;;4.35;2.10;;;;;;;17.79;58.01;100053.75;6219696;23;20334;-82
2021/09/13 01:26:05;;;;;;;4.35;2.30;;;;;;;17.81;57.62;100055.31;6219319;23;20028;-82
2021/09/13 01:28:31;;;;;;;5.38;2.25;;;;;;;17.80;57.83;100058.09;6246483;23;20031;-82
2021/09/13 01:31:01;;;;;;;7.50;2.22;;;;;;;17.78;58.34;100060.03;6219881;23;20024;-82
2021/09/13 01:33:28;;;;;;;7.45;2.10;;;;;;;17.76;58.12;100065.47;6219828;23;20435;-82
2021/09/13 01:35:55;;;;;;;3.25;1.83;;;;;;;17.74;58.04;100055.94;6219115;23;20020;-82
2021/09/13 01:38:25;;;;;;;4.18;1.80;;;;;;;17.72;58.77;100056.09;6219805;23;20021;-82
2021/09/13 01:40:53;;;;;;;3.60;1.88;;;;;;;17.72;58.25;100061.41;6219888;23;20024;-82
2021/09/13 01:43:19;;;;;;;4.15;1.88;;;;;;;17.70;58.29;100053.53;6221544;23;20443;-81
2021/09/13 01:45:49;;;;;;;7.82;2.33;;;;;;;17.68;58.85;100057.31;6221140;23;20016;-82
2021/09/13 01:48:16;;;;;;;6.78;1.83;;;;;;;17.68;58.34;100054.66;6221418;23;20402;-80
2021/09/13 01:50:43;;;;;;;2.88;1.60;;;;;;;17.67;58.48;100060.91;6221308;23;20034;-82
2021/09/13 01:53:10;;;;;;;4.57;1.70;;;;;;;17.64;58.44;100059.34;6221600;23;20027;-82
2021/09/13 01:55:37;;;;;;;3.97;1.70;;;;;;;17.64;58.32;100061.19;6221087;23;20020;-82
2021/09/13 01:58:04;;;;;;;3.80;1.60;;;;;;;17.62;58.76;100052.47;6248934;23;20028;-82
2021/09/13 02:00:31;;;;;;;2.88;1.63;;;;;;;17.60;58.96;100060.56;6221705;23;20027;-82
2021/09/13 02:02:58;;;;;;;3.42;1.70;;;;;;;17.60;58.78;100057.09;6221437;23;20027;-82
2021/09/13 02:05:25;;;;;;;5.50;2.10;;;;;;;17.60;58.95;100057.09;6221444;23;20060;-82
2021/09/13 02:07:52;;;;;;;3.15;1.85;;;;;;;17.61;59.24;100056.09;6221352;23;20020;-82
2021/09/13 02:10:20;;;;;;;3.65;1.65;;;;;;;17.62;59.36;100053.31;6221880;23;20091;-82
2021/09/13 02:12:48;;;;;;;5.20;1.98;;;;;;;17.62;59.60;100069.28;6221586;23;20016;-82
2021/09/13 02:15:16;;;;;;;7.32;2.30;;;;;;;17.65;59.06;100062.88;6220723;23;20027;-82
2021/09/13 02:17:44;;;;;;;5.03;1.80;;;;;;;17.64;59.34;100067.34;6248047;23;20062;-82
2021/09/13 02:20:13;;;;;;;5.15;1.60;;;;;;;17.65;59.43;100070.84;6221584;23;20321;-82
2021/09/13 02:22:40;;;;;;;2.05;1.15;;;;;;;17.65;59.33;100058.38;6221500;23;20458;-82
2021/09/13 02:25:08;;;;;;;3.95;1.50;;;;;;;17.65;59.36;100060.22;6221178;23;20020;-82
2021/09/13 02:27:37;;;;;;;2.67;1.38;;;;;;;17.64;59.71;100067.34;6221304;23;20031;-82
2021/09/13 02:30:04;;;;;;;3.70;1.80;;;;;;;17.66;59.31;100056.56;6247506;23;20026;-81
2021/09/13 02:32:31;;;;;;;3.03;1.65;;;;;;;17.66;59.33;100056.56;6220951;23;20020;-81
2021/09/13 02:35:04;;;;;;;3.53;1.80;;;;;;;17.64;59.54;100061.19;6221252;23;20039;-82
2021/09/13 02:37:32;;;;;;;3.08;1.88;;;;;;;17.64;59.59;100062.00;6220933;23;20020;-82
2021/09/13 02:40:04;;;;;;;4.20;1.90;;;;;;;17.63;59.92;100062.13;6221250;23;20035;-82
2021/09/13 02:42:31;;;;;;;3.80;1.52;;;;;;;17.63;59.26;100056.81;6221244;23;20443;-82
2021/09/13 02:44:58;;;;;;;3.00;1.70;;;;;;;17.63;59.59;100059.47;6221252;23;20028;-82
2021/09/13 02:47:27;;;;;;;3.20;1.70;;;;;;;17.60;59.84;100054.44;6221154;23;20050;-81
2021/09/13 02:49:53;;;;;;;4.13;1.92;;;;;;;17.61;59.35;100053.44;6220758;23;20020;-82
2021/09/13 02:52:20;;;;;;;4.13;1.67;;;;;;;17.60;59.29;100051.75;6220270;23;20024;-82
2021/09/13 02:54:51;;;;;;;4.63;1.90;;;;;;;17.56;60.12;100049.34;6220019;23;20031;-82
2021/09/13 02:57:17;;;;;;;5.22;1.70;;;;;;;17.56;59.51;100049.34;6220931;23;20027;-82
2021/09/13 02:59:45;;;;;;;3.78;1.75;;;;;;;17.57;59.51;100059.00;6220319;23;20030;-82
2021/09/13 03:02:13;;;;;;;4.80;2.08;;;;;;;17.57;59.80;100058.19;6219737;23;20035;-82
2021/09/13 03:04:40;;;;;;;2.75;1.70;;;;;;;17.56;59.70;100062.66;6246563;23;20028;-82
2021/09/13 03:07:07;;;;;;;4.03;1.80;;;;;;;17.56;59.71;100060.00;6221109;23;20035;-82
2021/09/13 03:09:34;;;;;;;5.28;2.42;;;;;;;17.56;59.93;100067.13;6220721;23;20028;-81
2021/09/13 03:12:02;;;;;;;6.53;2.22;;;;;;;17.56;60.26;100059.13;6220978;23;20028;-82
2021/09/13 03:14:31;;;;;;;4.70;2.10;;;;;;;17.55;60.63;100066.28;6220904;23;20346;-81
2021/09/13 03:16:58;;;;;;;4.35;1.90;;;;;;;17.57;60.33;100060.84;6220539;23;20024;-82
2021/09/13 03:19:24;;;;;;;4.30;2.20;;;;;;;17.58;60.50;100066.03;6220582;23;20035;-82
2021/09/13 03:22:09;;;;;;;8.85;2.40;;;;;;;17.56;61.07;100060.00;6220568;23;20027;-82
2021/09/13 03:24:36;;;;;;;4.03;2.20;;;;;;;17.62;60.78;100053.31;6220638;23;20020;-82
2021/09/13 03:27:03;;;;;;;4.28;2.25;;;;;;;17.65;60.77;100052.22;6247824;23;20035;-81
2021/09/13 03:29:38;;;;;;;7.90;2.30;;;;;;;17.65;61.10;100055.72;6221004;23;20443;-82
2021/09/13 03:32:05;;;;;;;5.45;2.20;;;;;;;17.69;60.39;100053.66;6220624;23;20020;-82
2021/09/13 03:34:31;;;;;;;5.10;2.42;;;;;;;17.71;60.39;100051.72;6219891;23;20028;-82
2021/09/13 03:36:59;;;;;;;5.43;2.58;;;;;;;17.72;60.46;100056.09;6220770;23;20047;-82
2021/09/13 03:39:26;;;;;;;7.63;2.30;;;;;;;17.73;60.62;100056.91;6220829;23;20509;-82
2021/09/13 03:41:53;;;;;;;5.53;2.13;;;;;;;17.73;60.54;100044.47;6220368;23;20020;-82
2021/09/13 03:44:21;;;;;;;4.20;2.05;;;;;;;17.74;60.78;100047.94;6220122;23;20034;-82
2021/09/13 03:46:47;;;;;;;4.15;2.22;;;;;;;17.77;60.57;100045.03;6220630;23;20051;-82
2021/09/13 03:49:14;;;;;;;6.78;2.20;;;;;;;17.77;60.70;100053.88;6220581;23;20396;-81
2021/09/13 03:51:41;;;;;;;4.40;1.85;;;;;;;17.78;60.71;100052.91;6220376;23;20338;-82
2021/09/13 03:54:11;;;;;;;2.83;2.40;;;;;;;17.77;61.23;100056.53;6220003;23;20027;-81
2021/09/13 03:56:37;;;;;;;3.28;2.10;;;;;;;17.79;61.00;100049.25;6220539;23;20339;-82
2021/09/13 03:59:04;;;;;;;4.82;2.20;;;;;;;17.81;61.02;100047.31;6220581;23;20351;-82
2021/09/13 04:01:38;;;;;;;7.50;2.25;;;;;;;17.81;61.43;100046.47;6221264;23;20023;-81
2021/09/13 04:04:06;;;;;;;5.22;2.05;;;;;;;17.81;60.96;100042.00;6220172;23;20395;-82
2021/09/13 04:11:54;;;;;;;6.93;2.30;;;;;;;17.81;60.61;100041.16;6203296;23;20028;-82
2021/09/13 04:14:28;;;;;;;7.35;2.10;;;;;;;17.78;61.45;100030.75;6219623;23;20020;-82
2021/09/13 04:16:56;;;;;;;6.97;2.47;;;;;;;17.79;60.80;100033.28;6220455;23;20469;-82
2021/09/13 04:19:23;;;;;;;5.30;1.85;;;;;;;17.79;61.07;100038.59;6220421;23;20028;-81
2021/09/13 04:21:53;;;;;;;4.75;2.15;;;;;;;17.79;61.06;100041.28;6220199;23;20024;-81
2021/09/13 04:24:20;;;;;;;6.95;2.50;;;;;;;17.80;61.00;100042.13;6219542;23;20020;-81
2021/09/13 04:26:47;;;;;;;6.03;3.05;;;;;;;17.79;61.19;100037.78;6220384;23;20443;-81
2021/09/13 04:29:17;;;;;;;8.70;2.60;;;;;;;17.78;61.70;100042.25;6219918;23;20034;-82
2021/09/13 04:31:44;;;;;;;7.28;2.55;;;;;;;17.82;61.15;100042.81;6220337;23;20031;-81
2021/09/13 04:34:11;;;;;;;5.82;2.78;;;;;;;17.83;61.10;100037.38;6219417;23;20020;-81
2021/09/13 04:36:38;;;;;;;5.20;2.90;;;;;;;17.85;61.46;100037.25;6220218;23;20055;-81
2021/09/13 04:39:07;;;;;;;7.22;2.90;;;;;;;17.86;61.77;100040.78;6220480;23;20023;-81
2021/09/13 04:41:36;;;;;;;3.50;2.55;;;;;;;17.87;61.23;100037.97;6220046;23;20028;-81
2021/09/13 04:44:03;;;;;;;8.00;3.20;;;;;;;17.87;61.29;100040.63;6219925;23;20028;-81
2021/09/13 04:46:30;;;;;;;9.05;3.58;;;;;;;17.88;61.33;100041.47;6220487;23;20328;-81
2021/09/13 04:48:57;;;;;;;7.80;3.40;;;;;;;17.89;61.43;100037.84;6246150;23;20063;-81
2021/09/13 04:51:23;;;;;;;4.75;3.42;;;;;;;17.91;61.62;100046.56;6220076;23;20026;-81
2021/09/13 04:53:50;;;;;;;4.95;3.63;;;;;;;17.93;61.67;100041.94;6219406;23;20028;-81
2021/09/13 04:56:17;;;;;;;6.85;3.78;;;;;;;17.95;61.94;100048.00;6245947;23;20024;-83
2021/09/13 04:58:54;;;;;;;6.45;3.90;;;;;;;17.94;62.19;100051.63;6246463;23;20043;-83
2021/09/13 05:01:21;;;;;;;5.80;3.67;;;;;;;18.01;61.78;100055.44;6219615;23;20027;-83
2021/09/13 05:03:49;;;;;;;7.18;4.35;;;;;;;18.03;61.59;100050.00;6220023;23;20030;-83
2021/09/13 05:06:18;;;;;;;6.80;4.30;;;;;;;18.03;61.66;100052.66;6219610;23;20070;-83
2021/09/13 05:08:45;;;;;;;8.98;5.03;;;;;;;18.06;61.37;100055.09;6219864;23;20039;-83
2021/09/13 05:11:17;;;;;;;5.18;4.03;;;;;;;18.04;62.04;100057.00;6220171;23;20342;-83
2021/09/13 05:13:44;;;;;;;5.97;4.38;;;;;;;18.08;61.59;100058.47;6219313;23;20027;-83
2021/09/13 05:16:17;;;;;;;7.35;4.22;;;;;;;18.05;62.10;100053.41;6219625;23;20400;-83
2021/09/13 05:18:45;;;;;;;;;;;;;;;18.08;61.09;100061.13;6220541;23;20398;-83
2021/09/13 05:21:13;;;;;;;6.75;4.18;;;;;;;18.16;61.18;100063.19;6219410;23;19915;-83
2021/09/13 05:23:40;;;;;;;7.18;4.65;;;;;;;18.15;61.45;100061.47;6219490;23;20020;-83
2021/09/13 05:26:06;;;;;;;6.47;4.72;;;;;;;18.17;61.77;100062.19;6219904;23;20028;-83
2021/09/13 05:28:34;;;;;;;12.88;5.05;;;;;;;18.17;61.91;100068.34;6219606;23;20035;-83
2021/09/13 05:31:01;;;;;;;9.63;4.97;;;;;;;18.19;61.57;100063.75;6219823;23;20338;-83
2021/09/13 05:33:35;;;;;;;6.60;4.47;;;;;;;18.17;62.56;100063.03;6246701;23;20453;-83
2021/09/13 05:36:02;;;;;;;6.65;5.13;;;;;;;18.22;61.71;100071.50;6219236;23;20024;-82
2021/09/13 05:38:35;;;;;;;9.02;5.70;;;;;;;18.20;61.82;100069.91;6219560;23;20024;-83
2021/09/13 05:41:02;;;;;;;8.73;6.07;;;;;;;18.21;61.44;100069.78;6219958;23;20034;-83
2021/09/13 05:43:34;;;;;;;7.28;5.75;;;;;;;18.19;62.14;100073.56;6219865;23;20249;-83
2021/09/13 05:46:00;;;;;;;13.10;6.85;;;;;;;18.20;61.85;100073.44;6219295;23;20032;-83
2021/09/13 05:48:44;;;;;;;8.05;6.60;;;;;;;18.15;62.12;100074.78;6219907;23;20473;-83
2021/09/13 05:51:10;;;;;;;8.80;6.50;;;;;;;18.18;61.70;100072.72;6219876;23;20461;-83
2021/09/13 05:53:39;;;;;;;8.23;6.95;;;;;;;18.17;61.80;100078.19;6219850;23;20056;-83
2021/09/13 05:56:06;;;;;;;9.40;6.38;;;;;;;18.16;61.88;100082.66;6245818;23;20024;-83
2021/09/13 05:58:40;;;;;;;8.60;5.90;;;;;;;18.10;62.74;100077.84;6219770;23;20034;-83
2021/09/13 06:01:07;;;;;;;11.02;7.13;;;;;;;18.13;61.85;100079.41;6219695;23;20024;-83
2021/09/13 06:03:35;;;;;;;9.07;6.50;;;;;;;18.11;61.98;100076.88;6219384;23;20070;-83
2021/09/13 06:06:02;;;;;;;10.32;7.05;;;;;;;18.10;62.19;100076.03;6219206;23;20020;-83
2021/09/13 06:08:47;;;;;;;9.50;6.97;;;;;;;18.04;62.45;100079.19;6219351;23;20024;-83
2021/09/13 06:11:14;;;;;;;10.52;7.38;;;;;;;18.08;61.99;100082.44;6219726;23;20020;-83
2021/09/13 06:13:47;;;;;;;10.55;7.93;;;;;;;18.04;62.97;100087.16;6219375;23;20024;-83
2021/09/13 06:16:13;;;;;;;8.73;6.82;;;;;;;18.06;62.45;100081.72;6219654;23;20020;-83
2021/09/13 06:19:03;;;;;;;9.77;7.57;;;;;;;18.01;63.21;100086.59;6219338;23;20024;-83
2021/09/13 06:21:30;;;;;;;10.38;6.80;;;;;;;18.07;62.47;100083.41;6219672;23;20339;-83
2021/09/13 06:24:01;;;;;;;9.00;6.80;;;;;;;18.06;63.36;100093.19;6219226;23;20032;-82
2021/09/13 06:26:27;;;;;;;8.55;5.63;;;;;;;18.10;62.65;100094.66;6219666;23;20339;-83
2021/09/13 06:28:57;;;;;;;9.32;5.95;;;;;;;18.12;63.52;100091.88;6220146;23;20020;-83
2021/09/13 06:31:24;;;;;;;11.00;5.90;;;;;;;18.17;62.92;100099.50;6221051;23;20027;-83
2021/09/13 06:33:58;;;;;;;11.40;5.38;;;;;;;18.18;63.64;100098.53;6221026;23;20451;-83
2021/09/13 06:36:26;;;;;;;6.15;5.25;;;;;;;18.25;63.41;100099.69;6221493;23;20447;-83
2021/09/13 06:38:55;;;;;;;5.38;4.40;;;;;;;18.29;63.38;100102.94;6220907;23;20020;-83
2021/09/13 06:41:22;;;;;;;5.38;4.65;;;;;;;18.34;63.47;100106.91;6220974;23;20035;-83
2021/09/13 06:43:51;;;;;;;4.20;3.80;;;;;;;18.38;63.19;100104.81;6220752;23;20440;-83
2021/09/13 06:48:56;;;;;;;5.03;3.95;;;;;;;18.46;64.24;100114.84;6246681;23;20038;-83
2021/09/13 06:51:23;;;;;;;6.03;3.55;;;;;;;18.53;63.28;100115.16;6220259;23;20032;-83
2021/09/13 06:53:50;;;;;;;5.18;3.88;;;;;;;18.56;63.43;100110.41;6219935;23;20031;-83
2021/09/13 06:56:17;;;;;;;3.95;3.55;;;;;;;18.60;63.22;100116.31;6220915;23;20027;-83
2021/09/13 06:58:52;;;;;;;5.20;4.07;;;;;;;18.60;63.84;100124.31;6220595;23;20034;-83
2021/09/13 07:01:22;;;;;;;8.13;4.75;;;;;;;18.64;63.20;100123.09;6220689;23;20024;-83
2021/09/13 07:03:57;;;;;;;8.68;5.40;;;;;;;18.65;63.59;100129.28;6220940;23;20343;-83
2021/09/13 07:06:26;;;;;;;6.72;4.43;;;;;;;18.69;63.34;100128.03;6220765;23;20024;-83
2021/09/13 07:09:06;;;;;;;6.50;5.53;;;;;;;18.68;63.66;100131.66;6220700;23;20055;-83
2021/09/13 07:11:33;;;;;;;5.43;4.93;;;;;;;18.74;63.18;100133.81;6221008;23;20020;-83
2021/09/13 07:14:15;;;;;;;6.22;5.45;;;;;;;18.72;63.19;100130.44;6221271;23;20070;-83
2021/09/13 07:16:42;;;;;;;6.32;5.72;;;;;;;18.77;62.75;100133.56;6221081;23;20461;-83
2021/09/13 07:19:12;;;;;;;6.82;5.28;;;;;;;18.77;63.31;100143.38;6220918;23;20103;-83
2021/09/13 07:21:39;;;;;;;10.18;6.20;;;;;;;18.78;62.66;100148.59;6221010;23;20328;-83
2021/09/13 07:24:06;;;;;;;6.60;5.78;;;;;;;18.77;62.72;100148.72;6220298;23;20095;-83
2021/09/13 07:26:45;;;;;;;7.35;5.07;;;;;;;18.72;63.53;100139.28;6220980;23;20023;-83
2021/09/13 07:29:12;;;;;;;7.22;5.55;;;;;;;18.77;63.12;100140.72;6220724;23;20024;-83
2021/09/13 07:31:40;;;;;;;6.13;5.43;;;;;;;18.77;62.99;100144.22;6247132;23;20028;-83
2021/09/13 07:34:07;;;;;;;7.30;6.18;;;;;;;18.79;63.25;100147.59;6220584;23;20027;-83
2021/09/13 07:36:35;;;;;;;7.28;6.07;;;;;;;18.79;63.27;100152.94;6220703;23;20026;-83
2021/09/13 07:39:02;;;;;;;9.15;6.10;;;;;;;18.80;63.32;100157.28;6247099;23;20039;-83
2021/09/13 07:41:28;;;;;;;7.03;5.85;;;;;;;18.82;63.31;100166.00;6220812;23;20462;-83
2021/09/13 07:44:01;;;;;;;6.18;5.57;;;;;;;18.82;63.89;100163.34;6220121;23;20024;-83
2021/09/13 07:46:30;;;;;;;6.72;6.03;;;;;;;18.86;63.52;100158.59;6220415;23;20028;-83
2021/09/13 07:48:57;;;;;;;39.92;6.15;;;;;;;18.89;63.20;100155.66;6247256;23;20046;-83
2021/09/13 07:51:24;;;;;;;23.98;6.93;;;;;;;18.93;63.60;100158.91;6220152;23;20112;-83
2021/09/13 07:53:50;;;;;;;7.65;6.13;;;;;;;18.97;63.33;100160.31;6220026;23;20091;-83
2021/09/13 07:56:17;;;;;;;15.52;6.75;;;;;;;19.00;63.43;100160.06;6246553;23;20020;-83
2021/09/13 07:58:57;;;;;;;22.38;6.90;;;;;;;18.99;63.57;100163.72;6246759;23;20027;-83
2021/09/13 08:01:24;;;;;;;11.15;6.90;;;;;;;19.08;63.09;100157.63;6220229;23;20028;-83
2021/09/13 08:03:53;;;;;;;10.50;6.50;;;;;;;19.10;63.33;100168.97;6219955;23;20020;-83
2021/09/13 08:06:21;;;;;;;8.15;6.35;;;;;;;19.16;63.36;100169.44;6220624;23;20510;-83
2021/09/13 08:08:57;;;;;;;7.53;6.15;;;;;;;19.16;63.70;100172.09;6220085;23;20107;-83
2021/09/13 08:11:23;;;;;;;7.18;6.20;;;;;;;19.22;63.03;100180.41;6220009;23;20028;-83
2021/09/13 08:13:52;;;;;;;11.90;7.03;;;;;;;19.24;63.55;100189.16;6219770;23;20017;-83
2021/09/13 08:16:20;;;;;;;9.98;7.28;;;;;;;19.28;63.30;100189.72;6246559;23;20119;-83
2021/09/13 08:18:47;;;;;;;9.13;6.72;;;;;;;19.29;62.88;100186.09;6220355;23;20024;-83
2021/09/13 08:21:13;;;;;;;8.45;7.10;;;;;;;19.32;63.20;100184.97;6220669;23;20459;-83
2021/09/13 08:23:41;;;;;;;8.20;6.78;;;;;;;19.34;63.19;100197.19;6246312;23;20016;-83
2021/09/13 08:26:08;;;;;;;9.75;7.22;;;;;;;19.35;63.02;100185.53;6220028;23;20031;-82
2021/09/13 08:28:35;;;;;;;15.05;8.23;;;;;;;19.37;63.54;100191.56;6219875;23;20030;-83
2021/09/13 08:31:02;;;;;;;11.77;7.88;;;;;;;19.39;62.80;100186.09;6220340;23;20034;-83
2021/09/13 08:33:53;;;;;;;9.68;8.32;;;;;;;19.36;63.48;100195.22;6219899;23;20111;-83
2021/09/13 08:36:20;;;;;;;9.95;7.60;;;;;;;19.44;63.30;100188.38;6220220;23;20024;-83
2021/09/13 08:39:24;;;;;;;10.10;7.57;;;;;;;19.44;63.73;100199.88;6219774;23;20030;-83
2021/09/13 08:41:51;;;;;;;8.05;6.55;;;;;;;19.54;63.36;100202.59;6246714;23;20022;-83
2021/09/13 08:44:20;;;;;;;11.02;7.68;;;;;;;19.59;63.56;100207.53;6245978;23;20020;-83
2021/09/13 08:49:39;;;;;;;13.45;8.20;;;;;;;19.69;63.48;100204.91;6247016;23;20020;-83
2021/09/13 08:52:06;;;;;;;10.07;7.32;;;;;;;19.81;63.47;100214.47;6219693;23;20335;-83
2021/09/13 08:54:37;;;;;;;11.02;7.25;;;;;;;19.89;62.87;100219.16;6219384;23;20016;-83
2021/09/13 08:57:20;;;;;;;11.57;8.18;;;;;;;19.91;63.05;100223.38;6220088;23;20050;-83
2021/09/13 08:59:48;;;;;;;9.35;6.93;;;;;;;20.02;63.05;100229.63;6246113;23;20020;-83
2021/09/13 09:02:15;;;;;;;10.60;7.82;;;;;;;20.10;63.07;100224.44;6219795;23;20026;-83
2021/09/13 09:04:55;;;;;;;10.48;7.22;;;;;;;20.17;62.79;100224.72;6244942;23;20395;-83
2021/09/13 09:07:23;;;;;;;10.70;7.85;;;;;;;20.23;62.29;100236.69;6219549;23;20024;-83
2021/09/13 09:10:13;;;;;;;12.10;8.00;;;;;;;20.23;62.35;100226.00;6219973;23;20775;-83
2021/09/13 09:12:58;;;;;;;11.20;8.02;;;;;;;20.29;62.69;100230.78;6219860;23;20020;-83
2021/09/13 09:15:27;;;;;;;12.20;8.13;;;;;;;20.39;62.55;100238.81;6219770;23;20020;-83
2021/09/13 09:18:02;;;;;;;9.80;8.15;;;;;;;20.41;62.82;100234.19;6219856;23;20331;-82
2021/09/13 09:20:49;;;;;;;13.02;9.10;;;;;;;20.48;62.05;100231.78;6219981;23;20443;-83
2021/09/13 09:23:16;;;;;;;10.75;8.25;;;;;;;20.59;61.87;100238.81;6219615;23;20021;-83
2021/09/13 09:25:53;;;;;;;12.02;9.25;;;;;;;20.64;62.58;100234.72;6219668;23;20051;-83
2021/09/13 09:28:21;;;;;;;12.95;9.20;;;;;;;20.75;62.08;100235.56;6219467;23;20032;-83
2021/09/13 09:30:49;;;;;;;12.52;8.85;;;;;;;20.85;61.98;100247.09;6219432;23;20026;-83
2021/09/13 09:33:20;;;;;;;12.57;8.55;;;;;;;20.96;62.17;100244.31;6220104;23;20024;-82
2021/09/13 09:35:52;;;;;;;11.63;8.93;;;;;;;21.08;61.46;100238.75;6219238;23;20020;-82
2021/09/13 09:38:28;;;;;;;11.13;8.10;;;;;;;21.24;61.31;100243.53;6220407;23;20020;-83
2021/09/13 09:41:27;;;;;;;11.30;7.88;;;;;;;21.37;61.39;100239.69;6219370;23;20026;-83
2021/09/13 09:43:57;;;;;;;9.98;7.85;;;;;;;21.56;61.26;100246.78;6219215;23;20020;-83
2021/09/13 09:47:16;;;;;;;10.98;7.93;;;;;;;21.67;60.44;100235.88;6219832;23;20020;-83
2021/09/13 09:49:54;;;;;;;8.27;6.60;;;;;;;21.83;59.61;100250.53;6099732;23;20349;-83
2021/09/13 09:52:38;;;;;;;8.48;7.15;;;;;;;21.89;59.00;100249.91;6126364;23;20095;-83
2021/09/13 09:55:20;;;;;;;10.90;7.68;;;;;;;21.91;59.05;100242.59;6219212;23;20020;-83
2021/09/13 09:58:16;;;;;;;7.93;6.57;;;;;;;21.92;58.51;100243.41;6219750;23;20439;-83
2021/09/13 10:00:45;;;;;;;9.90;6.18;;;;;;;21.93;57.64;100240.56;6180505;23;20020;-83
2021/09/13 10:03:29;;;;;;;9.20;6.75;;;;;;;21.83;58.08;100242.47;6247596;23;20316;-83
2021/09/13 10:05:56;;;;;;;8.82;6.63;;;;;;;21.81;57.86;100241.78;6221276;23;20020;-83
2021/09/13 10:08:34;;;;;;;8.23;6.28;;;;;;;21.69;57.81;100247.31;6221623;23;20097;-83
2021/09/13 10:11:06;;;;;;;8.88;5.07;;;;;;;21.65;58.02;100240.56;6221137;23;20028;-83
2021/09/13 10:13:32;;;;;;;5.07;4.57;;;;;;;21.57;58.15;100245.81;6221197;23;20020;-83
2021/09/13 10:16:01;;;;;;;6.18;4.32;;;;;;;21.44;58.63;100240.78;6247493;23;20020;-82
2021/09/13 10:18:29;;;;;;;5.10;4.30;;;;;;;21.33;58.72;100239.13;6221512;23;20494;-82
2021/09/13 10:21:04;;;;;;;4.93;3.90;;;;;;;21.18;59.44;100236.06;6247666;23;20020;-83
2021/09/13 10:23:30;;;;;;;5.55;4.40;;;;;;;21.09;59.03;100235.94;6221046;23;20032;-83
2021/09/13 10:25:59;;;;;;;5.35;4.55;;;;;;;20.98;59.53;100244.16;6220959;23;20023;-83
2021/09/13 10:28:26;;;;;;;4.93;4.03;;;;;;;20.88;60.13;100236.16;6221323;23;20091;-82
2021/09/13 10:31:11;;;;;;;5.72;4.25;;;;;;;20.72;60.72;100228.66;6221463;23;20336;-83
2021/09/13 10:37:22;;;;;;;5.15;3.95;;;;;;;20.60;61.10;100228.00;6225691;23;20028;-83
2021/09/13 10:39:56;;;;;;;5.67;4.33;;;;;;;20.57;61.52;100222.91;6220869;23;20020;-82
2021/09/13 10:42:44;;;;;;;4.75;4.30;;;;;;;20.52;61.26;100223.31;6221056;23;20020;-83
2021/09/13 10:45:18;;;;;;;5.45;4.05;;;;;;;20.55;61.46;100219.50;6221044;23;20075;-83
2021/09/13 10:48:09;;;;;;;5.57;4.28;;;;;;;20.53;62.24;100218.84;6212835;23;20020;-83
2021/09/13 10:50:51;;;;;;;4.72;4.20;;;;;;;20.52;62.50;100215.31;6101053;23;20018;-82
2021/09/13 10:53:18;;;;;;;4.03;3.65;;;;;;;20.59;62.01;100218.25;6101077;23;20109;-83
2021/09/13 10:56:07;;;;;;;7.38;4.10;;;;;;;20.58;62.91;100224.59;6124739;23;20029;-83
2021/09/13 10:58:54;;;;;;;6.47;3.60;;;;;;;20.62;62.70;100220.66;6100749;23;20037;-83
2021/09/13 11:01:24;;;;;;;4.68;3.50;;;;;;;20.70;62.38;100214.59;6125068;23;20026;-83
2021/09/13 11:03:57;;;;;;;4.32;3.47;;;;;;;20.75;62.61;100208.81;6100903;23;20068;-83
2021/09/13 11:06:43;;;;;;;4.72;3.70;;;;;;;20.78;63.22;100211.22;6101258;23;20025;-83
2021/09/13 11:09:14;;;;;;;4.82;3.33;;;;;;;20.90;62.94;100201.22;6180971;23;20024;-82
2021/09/13 11:11:55;;;;;;;3.95;3.03;;;;;;;20.94;62.85;100198.09;6221027;23;20024;-83
2021/09/13 11:14:23;;;;;;;5.35;3.55;;;;;;;21.03;62.74;100201.75;6220405;23;20016;-83
2021/09/13 11:17:00;;;;;;;4.28;3.55;;;;;;;21.07;63.17;100202.28;6221172;23;20542;-83
2021/09/13 11:19:29;;;;;;;4.45;3.78;;;;;;;21.16;62.47;100209.44;6220583;23;20028;-82
2021/09/13 11:22:03;;;;;;;5.75;3.65;;;;;;;21.20;62.18;100208.16;6221041;23;20030;-83
2021/09/13 11:24:37;;;;;;;5.75;4.13;;;;;;;21.27;61.91;100212.94;6220889;23;20063;-83
2021/09/13 11:27:18;;;;;;;6.38;4.07;;;;;;;21.29;61.64;100198.41;6220810;23;20399;-83
2021/09/13 11:29:46;;;;;;;6.10;3.78;;;;;;;21.39;61.06;100197.53;6221127;23;20020;-82
2021/09/13 11:32:19;;;;;;;3.42;3.08;;;;;;;21.41;61.25;100198.25;6220675;23;20024;-83
2021/09/13 11:34:51;;;;;;;4.78;3.75;;;;;;;21.48;60.77;100197.50;6220321;23;20020;-82
2021/09/13 11:37:26;;;;;;;5.53;3.00;;;;;;;21.56;61.26;100191.38;6220440;23;20058;-83
2021/09/13 11:40:14;;;;;;;4.22;2.45;;;;;;;21.71;61.23;100202.44;6224543;23;20043;-83
2021/09/13 11:42:47;;;;;;;3.85;2.75;;;;;;;21.81;60.71;100198.91;6220450;23;20056;-83
2021/09/13 11:52:49;;;;;;;4.13;2.60;;;;;;;22.45;61.13;100190.81;6246182;23;20023;-80
2021/09/13 11:55:45;;;;;;;4.30;2.80;;;;;;;22.61;60.12;100184.75;6153807;23;20018;-80
2021/09/13 11:58:44;;;;;;;4.35;2.85;;;;;;;22.82;59.85;100188.94;6153807;23;20460;-81
2021/09/13 12:01:22;;;;;;;3.97;2.58;;;;;;;23.00;58.90;100185.34;6154069;23;20064;-80
2021/09/13 12:03:53;;;;;;;4.18;2.55;;;;;;;23.16;58.20;100189.97;6153981;23;20116;-81